Terminal Aerodrome Forecast
Issued by NWS

Home | Current Version | Previous Version | Text Only | Print | Product List | Glossary On
Versions: 1 2 3 4 5 6 7 8 9 10 11 12 13 14 15 16
000
FTUS45 KABQ 271100
TAFLVS
TAF
KLVS 271130Z 2712/2812 12005KT 1/4SM FG VV001
      TEMPO 2713/2717 6SM BR FEW001
     FM271700 18005KT P6SM SKC
     FM280300 24010KT P6SM SKC
     FM280800 33005KT P6SM VCFG SCT004=

USA.gov is the U.S. government's official web portal to all federal, state and local government web resources and services.